createdAt,value
2022-10-08T00:01:12.092Z,61.68
2022-10-08T00:03:43.652Z,62.09
2022-10-08T00:06:17.769Z,61.81
2022-10-08T00:08:50.054Z,62.17
2022-10-08T00:11:31.573Z,62.37
2022-10-08T00:13:58.757Z,62.21
2022-10-08T00:16:30.431Z,62.17
2022-10-08T00:19:06.762Z,61.95
2022-10-08T00:21:36.636Z,62.13
2022-10-08T00:24:06.231Z,62.51
2022-10-08T00:26:38.569Z,62.44
2022-10-08T00:29:08.288Z,62.30
2022-10-08T00:31:41.012Z,62.68
2022-10-08T00:34:10.720Z,62.58
2022-10-08T00:36:39.908Z,62.38
2022-10-08T00:39:16.549Z,62.07
2022-10-08T00:41:45.000Z,62.56
2022-10-08T00:44:53.777Z,62.31
2022-10-08T00:47:32.369Z,62.10
2022-10-08T00:50:19.736Z,62.24
2022-10-08T00:52:55.415Z,62.47
2022-10-08T00:55:24.320Z,62.62
2022-10-08T00:57:52.570Z,62.66
2022-10-08T01:00:23.708Z,62.62
2022-10-08T01:02:52.054Z,62.57
2022-10-08T01:05:43.316Z,62.43
2022-10-08T01:08:18.981Z,62.23
2022-10-08T01:11:03.267Z,61.96
2022-10-08T01:14:45.378Z,62.29
2022-10-08T01:17:22.133Z,62.03
2022-10-08T01:20:39.789Z,62.18
2022-10-08T01:23:41.645Z,62.54
2022-10-08T01:26:20.429Z,62.42
2022-10-08T01:29:09.032Z,62.47
2022-10-08T01:31:58.733Z,62.46
2022-10-08T01:34:32.696Z,62.82
2022-10-08T01:37:02.382Z,63.36
2022-10-08T01:39:33.366Z,63.57
2022-10-08T01:42:03.383Z,63.31
2022-10-08T01:44:33.388Z,63.52
2022-10-08T01:47:01.755Z,62.83
2022-10-08T01:49:34.488Z,62.87
2022-10-08T01:52:10.776Z,62.61
2022-10-08T01:54:41.253Z,62.93
2022-10-08T01:57:11.031Z,63.22
2022-10-08T01:59:43.079Z,63.34
2022-10-08T02:02:26.608Z,63.25
2022-10-08T02:04:55.281Z,63.17
2022-10-08T02:07:32.747Z,63.50
2022-10-08T02:10:08.557Z,63.44
2022-10-08T02:12:38.193Z,63.95
2022-10-08T02:15:07.093Z,63.94
2022-10-08T02:17:37.272Z,64.34
2022-10-08T02:20:11.302Z,64.61
2022-10-08T02:22:53.258Z,64.54
2022-10-08T02:25:44.874Z,64.40
2022-10-08T02:28:20.822Z,64.66
2022-10-08T02:31:13.603Z,64.99
2022-10-08T02:33:46.351Z,65.22
2022-10-08T02:36:17.432Z,65.65
2022-10-08T02:38:50.555Z,65.78
2022-10-08T02:41:18.945Z,65.98
2022-10-08T02:43:48.134Z,66.53
2022-10-08T02:46:17.431Z,66.75
2022-10-08T02:49:13.621Z,66.29
2022-10-08T02:51:44.920Z,66.79
2022-10-08T02:54:12.196Z,67.04
2022-10-08T02:56:57.277Z,67.15
2022-10-08T02:59:25.368Z,67.24
2022-10-08T03:02:00.884Z,67.39
2022-10-08T03:04:39.158Z,67.50
2022-10-08T03:07:07.026Z,67.94
2022-10-08T03:09:39.703Z,67.66
2022-10-08T03:12:07.379Z,67.84
2022-10-08T03:14:39.431Z,68.33
2022-10-08T03:17:08.049Z,68.32
2022-10-08T03:19:35.274Z,68.11
2022-10-08T03:22:03.293Z,68.91
2022-10-08T03:24:30.254Z,68.67
2022-10-08T03:26:57.112Z,68.73
2022-10-08T03:29:23.862Z,68.77
2022-10-08T03:31:51.068Z,68.58
2022-10-08T03:34:17.862Z,68.74
2022-10-08T03:36:44.544Z,68.38
2022-10-08T03:39:12.049Z,68.68
2022-10-08T03:41:39.252Z,68.11
2022-10-08T03:44:10.836Z,68.55
2022-10-08T03:46:37.607Z,68.19
2022-10-08T03:49:04.551Z,67.88
2022-10-08T03:51:31.537Z,67.81
2022-10-08T03:53:58.501Z,68.17
2022-10-08T03:56:25.889Z,67.96
2022-10-08T03:58:55.276Z,67.54
2022-10-08T04:01:22.827Z,67.47
2022-10-08T04:03:49.770Z,67.95
2022-10-08T04:06:17.100Z,67.97
2022-10-08T04:08:43.876Z,67.77
2022-10-08T04:11:15.708Z,67.67
2022-10-08T04:13:43.951Z,67.14
2022-10-08T04:16:13.788Z,66.52
2022-10-08T04:18:41.323Z,66.35
2022-10-08T04:21:11.293Z,65.84
2022-10-08T04:23:38.846Z,66.20
2022-10-08T04:26:06.188Z,66.14
2022-10-08T04:28:38.201Z,65.57
2022-10-08T04:31:08.060Z,65.45
2022-10-08T04:33:35.878Z,65.46
2022-10-08T04:36:14.114Z,65.28
2022-10-08T04:38:44.099Z,65.98
2022-10-08T04:41:15.638Z,66.68
2022-10-08T04:43:43.930Z,66.50
2022-10-08T04:46:12.940Z,66.77
2022-10-08T04:48:40.558Z,66.98
2022-10-08T04:51:10.575Z,66.92
2022-10-08T04:53:38.306Z,66.72
2022-10-08T04:56:27.367Z,66.82
2022-10-08T04:58:57.877Z,66.85
2022-10-08T05:01:26.035Z,66.96
2022-10-08T05:03:55.208Z,66.17
2022-10-08T05:06:24.924Z,66.60
2022-10-08T05:08:51.849Z,66.95
2022-10-08T05:11:19.865Z,66.84
2022-10-08T05:13:51.325Z,66.85
2022-10-08T05:16:18.925Z,66.47
2022-10-08T05:18:46.628Z,66.04
2022-10-08T05:21:15.931Z,65.76
2022-10-08T05:23:45.662Z,65.36
2022-10-08T05:26:28.761Z,64.87
2022-10-08T05:29:08.018Z,64.80
2022-10-08T05:31:37.099Z,64.88
2022-10-08T05:34:04.427Z,64.57
2022-10-08T05:36:34.015Z,64.74
2022-10-08T05:39:02.329Z,64.63
2022-10-08T05:41:31.806Z,64.51
2022-10-08T05:43:59.245Z,64.10
2022-10-08T05:46:28.930Z,64.04
2022-10-08T05:48:57.354Z,64.43
2022-10-08T05:51:24.962Z,64.42
2022-10-08T05:53:52.943Z,64.34
2022-10-08T05:56:21.993Z,64.08
2022-10-08T05:58:49.456Z,64.48
2022-10-08T06:01:21.887Z,64.54
2022-10-08T06:03:53.867Z,64.65
2022-10-08T06:06:22.931Z,64.30
2022-10-08T06:08:58.792Z,64.25
2022-10-08T06:11:26.287Z,64.02
2022-10-08T06:13:54.385Z,64.05
2022-10-08T06:16:22.118Z,64.04
2022-10-08T06:18:49.058Z,63.92
2022-10-08T06:21:18.380Z,64.17
2022-10-08T06:23:47.918Z,64.81
2022-10-08T06:26:15.675Z,65.09
2022-10-08T06:28:42.489Z,65.40
2022-10-08T06:31:09.358Z,65.32
2022-10-08T06:33:36.829Z,65.72
2022-10-08T06:36:23.815Z,65.71
2022-10-08T06:38:55.403Z,65.40
2022-10-08T06:41:22.961Z,65.10
2022-10-08T06:43:50.031Z,65.14
2022-10-08T06:46:18.805Z,64.81
2022-10-08T06:48:46.586Z,64.90
2022-10-08T06:51:16.446Z,64.69
2022-10-08T06:53:44.459Z,64.67
2022-10-08T06:56:18.266Z,64.55
2022-10-08T06:58:46.585Z,64.79
2022-10-08T07:01:15.081Z,64.57
2022-10-08T07:03:42.276Z,64.48
2022-10-08T07:06:11.428Z,64.36
2022-10-08T07:08:38.951Z,64.49
2022-10-08T07:11:15.863Z,64.33
2022-10-08T07:13:43.228Z,64.47
2022-10-08T07:16:19.618Z,64.34
2022-10-08T07:18:49.075Z,64.39
2022-10-08T07:21:17.679Z,64.43
2022-10-08T07:23:44.932Z,64.76
2022-10-08T07:26:17.298Z,64.53
2022-10-08T07:28:49.883Z,64.66
2022-10-08T07:31:20.158Z,64.55
2022-10-08T07:33:47.042Z,64.22
2022-10-08T07:36:16.912Z,64.46
2022-10-08T07:38:44.243Z,64.34
2022-10-08T07:41:12.276Z,64.25
2022-10-08T07:43:43.120Z,64.07
2022-10-08T07:46:11.980Z,63.88
2022-10-08T07:48:39.481Z,63.40
2022-10-08T07:51:08.712Z,63.16
2022-10-08T07:53:36.781Z,62.52
2022-10-08T07:56:05.266Z,62.29
2022-10-08T07:58:32.082Z,61.88
2022-10-08T08:01:00.725Z,61.39
2022-10-08T08:03:27.668Z,61.22
2022-10-08T08:05:54.572Z,60.57
2022-10-08T08:08:24.996Z,59.96
2022-10-08T08:11:02.895Z,59.78
2022-10-08T08:13:36.536Z,59.28
2022-10-08T08:16:07.689Z,58.94
2022-10-08T08:18:37.273Z,58.55
2022-10-08T08:21:07.443Z,58.37
2022-10-08T08:23:36.619Z,57.99
2022-10-08T08:26:05.753Z,57.36
2022-10-08T08:28:33.091Z,57.04
2022-10-08T08:31:15.863Z,56.63
2022-10-08T08:33:43.784Z,55.73
2022-10-08T08:36:10.493Z,55.44
2022-10-08T08:38:37.904Z,55.10
2022-10-08T08:41:14.810Z,54.25
2022-10-08T08:43:43.302Z,53.89
2022-10-08T08:46:17.033Z,52.75
2022-10-08T08:48:46.181Z,52.30
2022-10-08T08:51:13.128Z,51.83
2022-10-08T08:53:39.999Z,50.56
2022-10-08T08:56:08.857Z,49.45
2022-10-08T08:58:50.754Z,48.86
2022-10-08T09:01:37.638Z,47.92
2022-10-08T09:04:34.272Z,47.56
2022-10-08T09:07:05.526Z,46.26
2022-10-08T09:09:48.373Z,46.06
2022-10-08T09:12:24.867Z,45.30
2022-10-08T09:14:55.196Z,44.12
2022-10-08T09:17:31.595Z,43.50
2022-10-08T09:20:00.793Z,43.09
2022-10-08T09:22:39.644Z,43.47
2022-10-08T09:25:15.917Z,42.99
2022-10-08T09:27:44.018Z,42.16
2022-10-08T09:30:45.170Z,41.65
2022-10-08T09:33:18.820Z,40.49
2022-10-08T09:35:50.889Z,40.15
2022-10-08T09:38:26.522Z,39.76
2022-10-08T09:41:03.298Z,39.38
2022-10-08T09:43:32.185Z,39.22
2022-10-08T09:45:59.529Z,38.87
2022-10-08T09:48:30.766Z,38.02
2022-10-08T09:51:05.099Z,36.92
2022-10-08T09:53:46.775Z,36.21
2022-10-08T09:56:15.097Z,35.82
2022-10-08T09:58:59.918Z,36.28
2022-10-08T10:01:27.513Z,35.43
2022-10-08T10:03:56.854Z,34.89
2022-10-08T10:06:30.156Z,35.03
2022-10-08T10:09:06.270Z,34.33
2022-10-08T10:11:36.591Z,34.25
2022-10-08T10:14:32.257Z,33.88
2022-10-08T10:17:06.349Z,34.04
2022-10-08T10:19:43.208Z,33.93
2022-10-08T10:22:24.297Z,33.57
2022-10-08T10:25:13.976Z,34.04
2022-10-08T10:27:51.435Z,33.83
2022-10-08T10:30:23.246Z,33.87
2022-10-08T10:33:13.733Z,32.96
2022-10-08T10:35:52.839Z,33.08
2022-10-08T10:38:28.605Z,32.85
2022-10-08T10:40:55.313Z,33.10
2022-10-08T10:43:34.563Z,32.83
2022-10-08T10:46:15.371Z,32.74
2022-10-08T10:48:42.476Z,33.05
2022-10-08T10:51:30.172Z,32.41
2022-10-08T10:54:00.443Z,32.41
2022-10-08T10:56:32.446Z,31.83
2022-10-08T10:59:17.986Z,31.83
2022-10-08T11:01:56.760Z,31.36
2022-10-08T11:04:38.598Z,32.38
2022-10-08T11:07:11.225Z,30.51
2022-10-08T11:10:19.512Z,30.59
2022-10-08T11:13:13.486Z,30.04
2022-10-08T11:15:50.632Z,30.00
2022-10-08T11:18:54.987Z,29.99
2022-10-08T11:21:39.697Z,29.07
2022-10-08T11:24:23.696Z,28.25
2022-10-08T11:27:35.453Z,28.91
2022-10-08T11:30:07.989Z,27.89
2022-10-08T11:32:35.347Z,26.64
2022-10-08T11:35:20.876Z,26.98
2022-10-08T11:38:21.843Z,26.90
2022-10-08T11:41:16.668Z,26.65
2022-10-08T11:43:48.807Z,25.58
2022-10-08T11:46:29.085Z,25.24
2022-10-08T11:49:02.959Z,24.44
2022-10-08T11:51:33.163Z,24.24
2022-10-08T11:54:30.996Z,24.34
2022-10-08T11:57:25.235Z,24.41
2022-10-08T11:59:57.324Z,24.00
2022-10-08T12:02:27.095Z,23.30
2022-10-08T12:04:56.249Z,23.73
2022-10-08T12:07:39.800Z,23.80
2022-10-08T12:10:06.459Z,23.14
2022-10-08T12:12:51.869Z,22.49
2022-10-08T12:15:25.368Z,21.73
2022-10-08T12:17:57.911Z,21.95
2022-10-08T12:20:33.827Z,21.56
2022-10-08T12:23:34.760Z,21.34
2022-10-08T12:26:01.461Z,21.17
2022-10-08T12:28:28.196Z,21.20
2022-10-08T12:30:56.372Z,20.83
2022-10-08T12:33:24.835Z,20.50
2022-10-08T12:36:10.834Z,20.95
2022-10-08T12:38:58.108Z,21.16
2022-10-08T12:41:43.011Z,21.00
2022-10-08T12:44:44.399Z,21.35
2022-10-08T12:47:23.037Z,20.47
2022-10-08T12:50:11.058Z,20.00
2022-10-08T12:52:37.781Z,20.82
2022-10-08T12:55:06.469Z,20.29
2022-10-08T12:57:40.849Z,19.79
2022-10-08T13:00:29.755Z,19.47
2022-10-08T13:03:01.374Z,20.35
2022-10-08T13:05:36.686Z,19.63
2022-10-08T13:08:31.390Z,20.28
2022-10-08T13:11:00.805Z,22.23
2022-10-08T13:13:38.263Z,24.60
2022-10-08T13:16:13.679Z,25.44
2022-10-08T13:18:43.910Z,26.99
2022-10-08T13:21:32.456Z,27.90
2022-10-08T13:24:00.709Z,28.85
2022-10-08T13:26:57.916Z,29.43
2022-10-08T13:29:29.219Z,30.14
2022-10-08T13:32:05.048Z,31.19
2022-10-08T13:34:41.580Z,31.67
2022-10-08T13:37:23.210Z,32.61
2022-10-08T13:40:25.656Z,33.29
2022-10-08T13:42:58.960Z,33.44
2022-10-08T13:45:31.805Z,34.43
2022-10-08T13:47:59.305Z,34.83
2022-10-08T13:50:26.061Z,35.42
2022-10-08T13:52:55.845Z,35.33
2022-10-08T13:55:22.553Z,36.12
2022-10-08T13:57:49.744Z,36.36
2022-10-08T14:00:17.488Z,36.80
2022-10-08T14:02:44.257Z,37.05
2022-10-08T14:05:10.984Z,37.26
2022-10-08T14:07:38.811Z,37.60
2022-10-08T14:10:06.521Z,37.86
2022-10-08T14:12:35.152Z,38.38
2022-10-08T14:15:02.135Z,38.77
2022-10-08T14:17:29.136Z,39.02
2022-10-08T14:19:55.912Z,39.38
2022-10-08T14:22:23.422Z,39.33
2022-10-08T14:24:50.180Z,39.14
2022-10-08T14:27:17.219Z,39.58
2022-10-08T14:29:44.076Z,39.42
2022-10-08T14:32:11.884Z,39.78
2022-10-08T14:34:39.207Z,39.89
2022-10-08T14:37:07.054Z,40.17
2022-10-08T14:39:33.833Z,39.76
2022-10-08T14:42:00.608Z,39.99
2022-10-08T14:44:27.520Z,40.20
2022-10-08T14:46:54.268Z,40.60
2022-10-08T14:49:21.553Z,40.79
2022-10-08T14:51:48.764Z,40.50
2022-10-08T14:54:15.821Z,40.87
2022-10-08T14:56:43.019Z,40.98
2022-10-08T14:59:10.993Z,41.08
2022-10-08T15:01:39.147Z,41.13
2022-10-08T15:04:07.035Z,41.00
2022-10-08T15:06:34.903Z,41.26
2022-10-08T15:09:01.967Z,41.10
2022-10-08T15:11:28.823Z,41.39
2022-10-08T15:13:55.832Z,41.75
2022-10-08T15:16:23.180Z,41.59
2022-10-08T15:18:49.964Z,42.17
2022-10-08T15:21:17.292Z,42.29
2022-10-08T15:23:43.985Z,42.75
2022-10-08T15:26:14.905Z,42.91
2022-10-08T15:28:43.164Z,43.01
2022-10-08T15:31:12.894Z,43.03
2022-10-08T15:33:44.986Z,43.05
2022-10-08T15:36:37.072Z,43.54
2022-10-08T15:39:12.226Z,43.45
2022-10-08T15:41:42.293Z,43.97
2022-10-08T15:44:29.652Z,44.25
2022-10-08T15:47:02.735Z,43.72
2022-10-08T15:49:31.567Z,44.08
2022-10-08T15:51:58.408Z,43.82
2022-10-08T15:54:25.258Z,44.22
2022-10-08T15:56:52.340Z,44.02
2022-10-08T15:59:19.176Z,44.54
2022-10-08T16:01:45.953Z,44.75
2022-10-08T16:04:13.918Z,44.80
2022-10-08T16:06:45.497Z,44.76
2022-10-08T16:09:14.165Z,44.77
2022-10-08T16:11:41.542Z,44.77
2022-10-08T16:14:12.166Z,45.16
2022-10-08T16:16:40.238Z,45.39
2022-10-08T16:19:09.577Z,45.00
2022-10-08T16:21:37.545Z,45.10
2022-10-08T16:24:05.310Z,45.30
2022-10-08T16:26:33.965Z,45.22
2022-10-08T16:29:04.021Z,45.84
2022-10-08T16:31:33.540Z,45.48
2022-10-08T16:34:02.805Z,45.62
2022-10-08T16:36:31.545Z,45.85
2022-10-08T16:38:58.509Z,45.98
2022-10-08T16:41:31.028Z,45.89
2022-10-08T16:44:00.582Z,46.45
2022-10-08T16:46:30.562Z,46.27
2022-10-08T16:49:08.078Z,46.43
2022-10-08T16:51:37.170Z,46.87
2022-10-08T16:54:06.180Z,46.80
2022-10-08T16:56:35.946Z,46.80
2022-10-08T16:59:06.706Z,47.51
2022-10-08T17:01:34.857Z,47.53
2022-10-08T17:04:05.043Z,47.51
2022-10-08T17:06:31.741Z,48.14
2022-10-08T17:08:58.685Z,48.39
2022-10-08T17:11:26.053Z,48.43
2022-10-08T17:13:57.726Z,48.01
2022-10-08T17:16:26.537Z,47.93
2022-10-08T17:18:55.593Z,47.97
2022-10-08T17:21:22.724Z,48.38
2022-10-08T17:23:50.422Z,48.61
2022-10-08T17:26:22.293Z,48.37
2022-10-08T17:28:50.991Z,48.46
2022-10-08T17:31:23.647Z,48.82
2022-10-08T17:33:51.048Z,49.08
2022-10-08T17:36:22.763Z,48.76
2022-10-08T17:38:52.978Z,49.11
2022-10-08T17:41:26.205Z,49.82
2022-10-08T17:43:56.006Z,49.86
2022-10-08T17:46:26.736Z,49.41
2022-10-08T17:48:54.042Z,49.70
2022-10-08T17:51:23.746Z,49.84
2022-10-08T17:53:55.638Z,49.87
2022-10-08T17:56:24.123Z,50.14
2022-10-08T17:58:52.294Z,50.45
2022-10-08T18:01:20.292Z,50.33
2022-10-08T18:03:53.444Z,50.34
2022-10-08T18:06:21.185Z,50.44
2022-10-08T18:08:48.260Z,50.55
2022-10-08T18:11:16.642Z,50.04
2022-10-08T18:13:43.367Z,50.46
2022-10-08T18:16:15.447Z,50.12
2022-10-08T18:18:44.558Z,50.47
2022-10-08T18:21:12.977Z,50.37
2022-10-08T18:24:00.088Z,50.67
2022-10-08T18:26:30.903Z,50.40
2022-10-08T18:29:00.092Z,50.49
2022-10-08T18:31:29.504Z,50.70
2022-10-08T18:34:00.245Z,50.50
2022-10-08T18:36:31.289Z,50.80
2022-10-08T18:39:01.003Z,50.75
2022-10-08T18:41:36.893Z,51.08
2022-10-08T18:44:06.192Z,51.08
2022-10-08T18:46:36.741Z,51.76
2022-10-08T18:49:05.121Z,51.72
2022-10-08T18:51:32.637Z,51.83
2022-10-08T18:54:02.267Z,52.02
2022-10-08T18:56:31.529Z,52.31
2022-10-08T18:59:01.922Z,52.18
2022-10-08T19:01:31.484Z,52.43
2022-10-08T19:04:00.621Z,52.72
2022-10-08T19:06:30.507Z,52.62
2022-10-08T19:08:58.774Z,52.50
2022-10-08T19:11:38.540Z,52.75
2022-10-08T19:14:11.029Z,53.10
2022-10-08T19:16:39.913Z,53.36
2022-10-08T19:19:10.047Z,53.48
2022-10-08T19:21:38.859Z,53.78
2022-10-08T19:24:07.480Z,53.60
2022-10-08T19:26:34.791Z,53.89
2022-10-08T19:29:01.575Z,53.95
2022-10-08T19:31:33.536Z,53.80
2022-10-08T19:34:06.124Z,53.93
2022-10-08T19:36:38.618Z,53.84
2022-10-08T19:39:13.084Z,54.08
2022-10-08T19:41:41.693Z,54.18
2022-10-08T19:44:09.261Z,54.46
2022-10-08T19:46:36.375Z,54.82
2022-10-08T19:49:05.944Z,54.73
2022-10-08T19:51:33.897Z,54.80
2022-10-08T19:54:01.336Z,54.82
2022-10-08T19:56:29.165Z,54.76
2022-10-08T19:58:56.187Z,55.04
2022-10-08T20:01:29.203Z,55.24
2022-10-08T20:03:58.065Z,55.20
2022-10-08T20:06:27.423Z,55.39
2022-10-08T20:08:55.557Z,55.21
2022-10-08T20:11:23.218Z,55.57
2022-10-08T20:13:51.401Z,55.66
2022-10-08T20:16:24.074Z,55.60
2022-10-08T20:18:59.498Z,55.49
2022-10-08T20:21:28.759Z,55.45
2022-10-08T20:23:55.950Z,55.37
2022-10-08T20:26:27.973Z,55.36
2022-10-08T20:29:07.228Z,55.69
2022-10-08T20:31:37.185Z,55.84
2022-10-08T20:34:05.260Z,55.67
2022-10-08T20:36:33.274Z,56.10
2022-10-08T20:39:00.381Z,56.19
2022-10-08T20:41:30.958Z,56.22
2022-10-08T20:44:03.245Z,56.13
2022-10-08T20:46:31.170Z,56.34
2022-10-08T20:48:58.092Z,56.43
2022-10-08T20:51:26.335Z,56.49
2022-10-08T20:54:01.139Z,56.50
2022-10-08T20:56:29.617Z,56.58
2022-10-08T20:58:56.759Z,56.68
2022-10-08T21:01:28.460Z,56.72
2022-10-08T21:03:55.765Z,56.96
2022-10-08T21:06:25.986Z,57.08
2022-10-08T21:08:54.895Z,56.84
2022-10-08T21:11:24.579Z,57.13
2022-10-08T21:13:51.895Z,56.92
2022-10-08T21:16:21.881Z,57.24
2022-10-08T21:18:50.189Z,57.04
2022-10-08T21:21:17.763Z,57.05
2022-10-08T21:23:44.770Z,57.14
2022-10-08T21:26:20.040Z,57.15
2022-10-08T21:28:49.110Z,57.17
2022-10-08T21:31:18.047Z,57.17
2022-10-08T21:33:47.644Z,57.06
2022-10-08T21:36:17.472Z,57.22
2022-10-08T21:38:44.417Z,57.17
2022-10-08T21:41:13.424Z,57.27
2022-10-08T21:43:47.966Z,57.21
2022-10-08T21:46:18.077Z,57.30
2022-10-08T21:48:45.508Z,57.27
2022-10-08T21:51:15.753Z,57.34
2022-10-08T21:53:47.592Z,57.42
2022-10-08T21:56:17.254Z,57.62
2022-10-08T21:58:46.502Z,57.59
2022-10-08T22:01:21.759Z,57.46
2022-10-08T22:03:49.417Z,57.53
2022-10-08T22:06:16.138Z,57.70
2022-10-08T22:08:43.056Z,57.54
2022-10-08T22:11:09.801Z,57.85
2022-10-08T22:13:36.591Z,57.55
2022-10-08T22:16:05.248Z,57.45
2022-10-08T22:18:33.440Z,57.37
2022-10-08T22:21:05.815Z,57.13
2022-10-08T22:23:35.429Z,57.52
2022-10-08T22:26:08.775Z,57.53
2022-10-08T22:28:36.017Z,57.68
2022-10-08T22:31:04.632Z,57.85
2022-10-08T22:33:31.924Z,57.83
2022-10-08T22:36:13.224Z,57.72
2022-10-08T22:38:41.977Z,57.85
2022-10-08T22:41:33.641Z,57.79
2022-10-08T22:44:01.061Z,57.94
2022-10-08T22:46:35.338Z,58.02
2022-10-08T22:49:05.030Z,58.17
2022-10-08T22:51:31.795Z,58.41
2022-10-08T22:53:59.077Z,58.41
2022-10-08T22:56:28.400Z,58.54
2022-10-08T22:58:55.337Z,58.71
2022-10-08T23:01:24.514Z,58.99
2022-10-08T23:03:51.726Z,58.90
2022-10-08T23:06:22.334Z,58.79
2022-10-08T23:08:55.884Z,59.01
2022-10-08T23:11:23.385Z,58.88
2022-10-08T23:13:54.762Z,58.79
2022-10-08T23:16:22.311Z,59.01
2022-10-08T23:19:08.517Z,59.15
2022-10-08T23:21:36.520Z,59.29
2022-10-08T23:24:03.868Z,59.14
2022-10-08T23:26:30.911Z,59.18
2022-10-08T23:29:00.232Z,59.41
2022-10-08T23:31:29.895Z,59.42
2022-10-08T23:33:57.202Z,59.44
2022-10-08T23:36:30.379Z,59.74
2022-10-08T23:38:57.210Z,59.60
2022-10-08T23:41:25.124Z,59.79
2022-10-08T23:43:53.576Z,59.53
2022-10-08T23:46:22.889Z,59.70
2022-10-08T23:48:50.615Z,59.59
2022-10-08T23:51:19.766Z,59.41
2022-10-08T23:53:48.239Z,59.45
2022-10-08T23:56:15.296Z,59.39
2022-10-08T23:58:42.123Z,59.67
